Taylor Fork

This weather station provides wind speed, gust or max wind speed, and wind direction at 9460 ft. near Pika Point above Sunlight Basin.  

This data can be used with temperature and precipitation data from the Carrot Basin SNOTEL site. If the data below is not displayed or up to date, view data here.

Elevation
9460ft
Jump to table bottom
Date Time Temperature
deg F
RH, % Wind Speed Wind Gust Wind Direction
03/30/22 14:00 65.8 29 0 1 N - 358
03/30/22 13:00 60.5 25 0 4 N - 10
03/30/22 12:00 48.4 64 1 7 NE - 35
03/30/22 11:00 36.8 21 3 8 N - 15
03/30/22 10:00 30.2 29 4 12 N - 15
03/30/22 09:00 28.4 28 7 12 N - 0
03/30/22 08:00 25.4 36 9 13 N - 358
03/30/22 07:00 21.5 57 5 14 NE - 25
03/30/22 06:00 16.3 82 5 15 NE - 38
03/30/22 05:00 16.8 80 8 18 N - 8
03/30/22 04:00 16.4 75 13 21 N - 357
03/30/22 03:00 16.2 69 15 22 N - 358
03/30/22 02:00 16.2 63 13 23 N - 6
03/30/22 01:00 15.7 61 13 23 N - 4
03/30/22 00:00 14.6 84 13 23 N - 6
03/29/22 23:00 14.2 93 10 19 N - 10
03/29/22 22:00 13.8 94 5 12 NE - 34
03/29/22 21:00 15.1 95 10 27 N - 3
03/29/22 20:00 17.7 87 17 27 N - 355
03/29/22 19:00 18.7 87 13 25 N - 358
03/29/22 18:00 21.2 88 13 24 N - 0
03/29/22 17:00 23.5 79 18 31 N - 355
03/29/22 16:00 26.3 72 14 23 N - 358
03/29/22 15:00 24.0 87 12 23 N - 358
03/29/22 14:00 23.6 86 16 27 N - 352
03/29/22 13:00 25.6 91 14 33 N - 355
03/29/22 12:00 26.5 96 6 16 N - 6
03/29/22 11:00 24.3 96 8 15 N - 0
03/29/22 10:00 23.0 96 6 14 N - 6
03/29/22 09:00 23.4 96 8 19 N - 6
03/29/22 08:00 23.6 96 9 21 N - 4
03/29/22 07:00 25.6 96 9 15 N - 358
03/29/22 06:00 26.4 94 9 19 N - 357
03/29/22 05:00 26.7 89 5 14 N - 15
03/29/22 04:00 26.5 88 5 14 N - 10
03/29/22 03:00 27.0 71 3 8 NE - 32
03/29/22 02:00 30.7 53 4 7 W - 263
03/29/22 01:00 30.8 53 7 14 W - 253
03/29/22 00:00 31.9 48 10 19 W - 271
03/28/22 23:00 32.7 45 14 26 W - 268
03/28/22 22:00 32.9 44 17 28 W - 257
03/28/22 21:00 34.0 45 19 32 W - 248
03/28/22 20:00 33.7 47 19 29 SW - 234
03/28/22 19:00 34.7 47 17 30 SW - 222
03/28/22 18:00 36.1 42 18 33 SW - 223
03/28/22 17:00 37.8 37 19 38 SW - 218
03/28/22 16:00 39.7 35 18 34 SW - 213
03/28/22 15:00 39.9 37 19 35 SW - 209
03/28/22 14:00 40.4 34 18 35 S - 202
03/28/22 13:00 40.0 34 17 33 SW - 208